Tuesday, March 03, 2015
20:18 UTC
  |  Log In   |  Register Free
Airport Search:

New River Valley Airport
(KPSK)

New River Valley Airport Diagram
No Airport Diagram Available

FAA data valid effective January 08, 2015 - March 05, 2015 (unless otherwise noted).

 
 
 
 
 
 
 
 
 
 
 
 
 
 

Current Aviation Weather for New River Valley Airport (KPSK)

The most recent METAR observation for KPSK was updated at: 2012
METAR Summary (Translated METAR)
KPSK
031955Z AUTO 00000KT 5SM BR OVC008 03/03 A3015 RMK AO2 T00300028
KBCB
031955Z AUTO 00000KT 10SM OVC009 01/M01 A3017 RMK AO2 T00131007
(13.6 nm NE from KPSK)
KHLX
031955Z AUTO 18007KT 1/4SM FG OVC002 01/01 A3011 RMK AO2 T00140012
(23.4 nm SW from KPSK)
TAF Summary (Translated TAF)
KBCB
(13.6 nm NE from KPSK)
031724Z 0318/0418 13006KT 6SM -DZ BR OVC011 FM040600 22003KT 2SM -RA BR OVC003 WS020/25046KT FM041000 26005KT 4SM BR OVC004 FM041500 29006KT 6SM -RA BR OVC015
  Airport Weather Conditions for KPSK

 Current Weather at PSK
37° F
Fog/Mist
East winds at 3.5 mph
PSK NOAA Radar

Pressure: 30.15 in
Humidity: 99%
Wind: East at 3.5 MPH (3 KT)
Dew Point: 36.9°F
Visibility: 4.00 mi


Airport Weather Forecast for KPSK

Translated METAR and TAF for KPSK
Translated METAR for KPSK (2018 UTC 03 March 2015)
found at http://aviationweather.gov/adds/metars/
 
METAR text: KPSK 031955Z AUTO 00000KT 5SM BR OVC008 03/03 A3015 RMK AO2 T00300028
Conditions at: KPSK (DUBLIN/NEW RIV , VA, US) observed 1955 UTC 03 March 2015
Temperature: 3.0°C (37°F)
Dewpoint: 2.8°C (37°F) [RH = 99%]
Pressure (altimeter): 30.15 inches Hg (1021.1 mb)
Winds: calm
Visibility: 5 miles (8 km)
Ceiling: 800 feet AGL
Clouds: overcast cloud deck at 800 feet AGL
Weather: BR  (mist)
Translated TAF for KPSK

There is no translated TAF available for this airport

Find All Airport Services Find A Hotel Find A Rental Car Find A Golf Course Find A Restaurant $100 Hamburger



FBO's on the Field
FBO Company Facility Photos Services Transportation Aviation Fuel Prices: Prices include tax
Catering Weather Repair Courtesy Rental Type 100LL JetA JetA+ MOGAS 8087
 
New River Valley Airport

This FBO has not yet been rated
FS:Avfuel
Last Updated: Feb-10
Login to update fuel prices
SS:
Contact New River Valley AirportMore FBO Information
 
Add another FBO Facility Photos Catering Weather Repair Courtesy Rental Type 100LL JetA JetA+ MOGAS 8087
Services Transportation Aviation Fuel Prices: Prices include tax


model-print
model-print
model-print
model-print